Portada
METAR-TAF:

METAR-TAF

Aeroports :

Orsk, Rússia

latitud: 51-04-18N, longitud: 058-35-48E, altitud: 277 m

Observació

L'informe es va fer fa 16 minuts, a les 12:00 UTC
Vent 6 kt del Est/Sud-Est
Temperatura -12°C
Humitat 78%
Pressió 1009 hPa
Visibilitat: 3800 m
Cel cobert a una alçada de 600 ft
neu

METAR: UWOR 191200Z 11003MPS 3800 -SN OVC006 M12/M15 Q1009 R07/950245 NOSIG RMK QBB180 QFE732/0976

Hora: 17:16 (12:16 UTC)

Pronòstic

L'informe es va fer fa 1 hora i 16 minuts, a les 11:00 UTC
Pronòstic vàlid del 19 a les 12 UTC al 19 a les 21 UTC
Vent 10 kt del Est amb ràfegues de 23 kt
Visibilitat: 2000 m
Cel ennuvolat a una alçada de 700 ft
neu
Temporalment
l' 19 a les 12 UTC al 19 a les 21 UTC
Vent 6 kt del Nord-Est amb ràfegues de 16 kt
Visibilitat: 0500 m
a una alçada de 200 ft
neu

TAF: UWOR 191100Z 1912/1921 08005G12MPS 2000 SN BKN007 TXM12/1912Z TNM15/1918Z TEMPO 1912/1921 05003G08MPS 0500 +SN VV002

Observacions i pronòstics meteorològics de més de 4000 aeroports (METAR i TAF).

Les estacions disponibles són els punts grocs i vermells al mapa.

Posi el ratolí al punt desitjat per veure el nom de l'estació.

Feu clic per veure les observacions i els pronòstics meteorològics.

Per canviar el mapa: feu clic els botons verds amb una creu de color negre per apropar; al botó verd amb un guió per allunyar la imatge; o en les fletxes verdes per a mapes adjacents.


METAR-TAF: